createdAt,value
2023-02-27T00:03:21.417Z,101046.95
2023-02-27T00:07:26.218Z,101050.38
2023-02-27T00:11:29.492Z,101049.44
2023-02-27T00:15:33.144Z,101051.61
2023-02-27T00:19:36.127Z,101049.67
2023-02-27T00:23:38.879Z,101052.70
2023-02-27T00:27:42.120Z,101051.20
2023-02-27T00:31:45.091Z,101052.45
2023-02-27T00:36:02.057Z,101058.67
2023-02-27T00:40:05.781Z,101056.77
2023-02-27T00:44:08.844Z,101059.05
2023-02-27T00:48:11.884Z,101056.27
2023-02-27T00:52:14.730Z,101054.77
2023-02-27T00:56:17.707Z,101055.77
2023-02-27T01:00:20.690Z,101054.16
2023-02-27T01:04:23.617Z,101050.27
2023-02-27T01:08:26.509Z,101048.34
2023-02-27T01:12:29.502Z,101048.93
2023-02-27T01:16:32.690Z,101045.00
2023-02-27T01:20:35.613Z,101040.86
2023-02-27T01:24:38.612Z,101040.00
2023-02-27T01:28:41.557Z,101042.04
2023-02-27T01:32:44.693Z,101039.95
2023-02-27T01:36:47.554Z,101048.91
2023-02-27T01:40:50.341Z,101053.48
2023-02-27T01:45:11.959Z,101052.77
2023-02-27T01:49:21.033Z,101053.77
2023-02-27T01:53:26.582Z,101061.25
2023-02-27T01:57:29.996Z,101066.64
2023-02-27T02:01:34.826Z,101068.11
2023-02-27T02:05:38.110Z,101065.17
2023-02-27T02:09:45.292Z,101069.25
2023-02-27T02:13:53.499Z,101068.69
2023-02-27T02:18:11.566Z,101066.94
2023-02-27T02:22:32.589Z,101063.55
2023-02-27T02:27:07.950Z,101064.29
2023-02-27T02:31:10.838Z,101067.17
2023-02-27T02:35:46.399Z,101062.77
2023-02-27T02:39:59.322Z,101062.82
2023-02-27T02:44:20.308Z,101062.24
2023-02-27T02:48:37.318Z,101063.19
2023-02-27T02:52:54.338Z,101066.05
2023-02-27T02:57:08.662Z,101067.54
2023-02-27T03:01:27.405Z,101068.87
2023-02-27T03:05:42.087Z,101078.05
2023-02-27T03:09:57.628Z,101087.67
2023-02-27T03:14:08.270Z,101089.55
2023-02-27T03:18:20.757Z,101095.05
2023-02-27T03:22:31.005Z,101103.34
2023-02-27T03:26:39.143Z,101104.46
2023-02-27T03:30:51.330Z,101107.50
2023-02-27T03:34:54.820Z,101109.98
2023-02-27T03:39:05.726Z,101112.05
2023-02-27T03:43:21.133Z,101116.44
2023-02-27T03:47:24.446Z,101118.08
2023-02-27T03:51:28.972Z,101118.88
2023-02-27T03:55:39.781Z,101125.27
2023-02-27T03:59:43.636Z,101122.95
2023-02-27T04:03:53.570Z,101124.90
2023-02-27T04:08:25.890Z,101129.23
2023-02-27T04:12:37.824Z,101128.61
2023-02-27T04:17:23.318Z,101131.73
2023-02-27T04:21:54.182Z,101138.73
2023-02-27T04:26:09.203Z,101140.01
2023-02-27T04:30:45.074Z,101142.48
2023-02-27T04:34:59.905Z,101145.23
2023-02-27T04:39:22.115Z,101147.42
2023-02-27T04:43:27.914Z,101150.76
2023-02-27T04:47:38.631Z,101153.73
2023-02-27T04:51:52.011Z,101154.52
2023-02-27T04:56:01.548Z,101158.45
2023-02-27T05:00:09.280Z,101159.72
2023-02-27T05:04:16.041Z,101167.91
2023-02-27T05:08:24.340Z,101173.65
2023-02-27T05:12:36.334Z,101180.92
2023-02-27T05:16:46.670Z,101182.98
2023-02-27T05:21:06.621Z,101188.17
2023-02-27T05:25:16.113Z,101198.13
2023-02-27T05:29:31.512Z,101198.23
2023-02-27T05:34:05.869Z,101201.17
2023-02-27T05:38:08.796Z,101201.06
2023-02-27T05:42:18.344Z,101202.48
2023-02-27T05:46:26.928Z,101209.98
2023-02-27T05:50:33.967Z,101214.36
2023-02-27T05:54:52.066Z,101218.27
2023-02-27T05:59:01.080Z,101229.52
2023-02-27T06:03:04.260Z,101229.00
2023-02-27T06:07:08.643Z,101229.95
2023-02-27T06:11:13.323Z,101235.88
2023-02-27T06:15:17.556Z,101239.29
2023-02-27T06:19:20.424Z,101239.98
2023-02-27T06:23:23.255Z,101235.23
2023-02-27T06:27:29.232Z,101237.07
2023-02-27T06:31:32.091Z,101237.31
2023-02-27T06:35:35.124Z,101237.11
2023-02-27T06:39:45.224Z,101234.38
2023-02-27T06:43:55.778Z,101236.86
2023-02-27T06:47:58.586Z,101240.20
2023-02-27T06:52:01.413Z,101245.72
2023-02-27T06:56:04.866Z,101249.80
2023-02-27T07:00:08.388Z,101250.58
2023-02-27T07:04:14.250Z,101257.02
2023-02-27T07:08:17.765Z,101255.79
2023-02-27T07:12:20.745Z,101264.74
2023-02-27T07:16:23.950Z,101265.27
2023-02-27T07:20:27.487Z,101266.37
2023-02-27T07:24:30.372Z,101269.31
2023-02-27T07:28:33.464Z,101271.64
2023-02-27T07:32:36.376Z,101273.84
2023-02-27T07:36:39.703Z,101275.73
2023-02-27T07:40:42.636Z,101281.47
2023-02-27T07:44:45.703Z,101281.71
2023-02-27T07:48:48.636Z,101282.30
2023-02-27T07:52:52.480Z,101282.84
2023-02-27T07:56:55.892Z,101285.09
2023-02-27T08:01:03.655Z,101289.33
2023-02-27T08:05:10.785Z,101292.61
2023-02-27T08:09:47.712Z,101291.70
2023-02-27T08:14:06.146Z,101296.34
2023-02-27T08:18:11.112Z,101301.08
2023-02-27T08:22:14.678Z,101302.36
2023-02-27T08:26:18.958Z,101304.14
2023-02-27T08:30:23.073Z,101308.77
2023-02-27T08:34:26.546Z,101308.05
2023-02-27T08:38:30.328Z,101313.40
2023-02-27T08:42:34.254Z,101306.87
2023-02-27T08:46:37.862Z,101314.59
2023-02-27T08:50:40.980Z,101312.58
2023-02-27T08:54:44.195Z,101312.61
2023-02-27T08:58:48.952Z,101316.79
2023-02-27T09:02:52.059Z,101330.14
2023-02-27T09:06:55.299Z,101329.95
2023-02-27T09:10:58.674Z,101325.83
2023-02-27T09:15:02.344Z,101332.31
2023-02-27T09:19:05.789Z,101335.21
2023-02-27T09:23:09.573Z,101339.27
2023-02-27T09:27:14.231Z,101343.83
2023-02-27T09:31:18.403Z,101343.30
2023-02-27T09:35:21.714Z,101342.84
2023-02-27T09:39:25.127Z,101343.15
2023-02-27T09:43:49.752Z,101343.70
2023-02-27T09:48:25.438Z,101340.34
2023-02-27T09:52:31.342Z,101341.17
2023-02-27T09:56:49.417Z,101345.80
2023-02-27T10:01:05.678Z,101349.04
2023-02-27T10:05:14.658Z,101351.13
2023-02-27T10:09:42.987Z,101351.48
2023-02-27T10:14:02.228Z,101347.56
2023-02-27T10:18:25.386Z,101346.64
2023-02-27T10:22:43.548Z,101347.57
2023-02-27T10:26:46.724Z,101346.24
2023-02-27T10:30:53.288Z,101347.67
2023-02-27T10:35:06.672Z,101347.42
2023-02-27T10:39:14.459Z,101348.32
2023-02-27T10:43:19.681Z,101348.33
2023-02-27T10:47:24.963Z,101345.95
2023-02-27T10:51:36.381Z,101343.98
2023-02-27T10:55:48.717Z,101342.76
2023-02-27T10:59:55.937Z,101340.02
2023-02-27T11:04:00.389Z,101338.00
2023-02-27T11:08:30.966Z,101331.16
2023-02-27T11:12:35.633Z,101331.59
2023-02-27T11:16:54.896Z,101328.02
2023-02-27T11:21:12.456Z,101324.72
2023-02-27T11:25:24.592Z,101327.41
2023-02-27T11:29:28.972Z,101326.79
2023-02-27T11:33:38.433Z,101325.81
2023-02-27T11:37:42.130Z,101328.15
2023-02-27T11:41:45.872Z,101321.30
2023-02-27T11:46:13.432Z,101320.05
2023-02-27T11:50:31.658Z,101323.20
2023-02-27T11:54:51.266Z,101324.33
2023-02-27T11:59:12.728Z,101321.60
2023-02-27T12:03:28.031Z,101322.91
2023-02-27T12:07:49.960Z,101317.16
2023-02-27T12:11:54.980Z,101318.89
2023-02-27T12:16:08.195Z,101315.90
2023-02-27T12:20:30.766Z,101318.55
2023-02-27T12:24:47.716Z,101324.67
2023-02-27T12:28:58.406Z,101328.83
2023-02-27T12:33:36.583Z,101336.19
2023-02-27T12:37:40.210Z,101338.10
2023-02-27T12:41:51.897Z,101342.01
2023-02-27T12:46:05.661Z,101342.34
2023-02-27T12:50:17.252Z,101336.45
2023-02-27T12:54:20.477Z,101344.72
2023-02-27T12:58:26.336Z,101339.63
2023-02-27T13:02:35.311Z,101341.27
2023-02-27T13:07:04.420Z,101346.08
2023-02-27T13:11:30.953Z,101345.68
2023-02-27T13:15:45.943Z,101347.98
2023-02-27T13:20:12.450Z,101351.70
2023-02-27T13:24:23.918Z,101355.05
2023-02-27T13:28:29.723Z,101352.24
2023-02-27T13:32:45.640Z,101348.37
2023-02-27T13:36:58.053Z,101349.33
2023-02-27T13:41:25.482Z,101346.55
2023-02-27T13:45:54.723Z,101348.61
2023-02-27T13:50:03.288Z,101354.59
2023-02-27T13:54:15.331Z,101356.25
2023-02-27T13:58:24.730Z,101356.73
2023-02-27T14:02:59.902Z,101351.55
2023-02-27T14:07:11.371Z,101359.23
2023-02-27T14:11:18.274Z,101356.93
2023-02-27T14:15:24.422Z,101357.01
2023-02-27T14:20:07.592Z,101363.11
2023-02-27T14:24:19.638Z,101361.63
2023-02-27T14:28:30.841Z,101363.30
2023-02-27T14:32:37.228Z,101366.10
2023-02-27T14:36:52.446Z,101369.08
2023-02-27T14:41:34.483Z,101369.05
2023-02-27T14:45:37.865Z,101378.40
2023-02-27T14:54:52.786Z,101387.94
2023-02-27T14:59:04.364Z,101395.71
2023-02-27T15:03:26.484Z,101398.33
2023-02-27T15:07:33.469Z,101404.05
2023-02-27T15:11:43.230Z,101406.33
2023-02-27T15:15:48.933Z,101409.22
2023-02-27T15:19:56.989Z,101412.94
2023-02-27T15:24:04.372Z,101413.26
2023-02-27T15:28:22.573Z,101411.84
2023-02-27T15:32:29.949Z,101412.67
2023-02-27T15:36:35.786Z,101419.36
2023-02-27T15:40:39.336Z,101424.58
2023-02-27T15:44:45.749Z,101424.34
2023-02-27T15:48:51.542Z,101425.92
2023-02-27T15:53:07.185Z,101430.42
2023-02-27T15:57:10.619Z,101434.73
2023-02-27T16:01:19.232Z,101439.14
2023-02-27T16:05:30.808Z,101443.75
2023-02-27T16:09:37.145Z,101448.19
2023-02-27T16:13:41.386Z,101456.05
2023-02-27T16:18:22.557Z,101462.12
2023-02-27T16:22:26.402Z,101466.27
2023-02-27T16:26:32.419Z,101466.39
2023-02-27T16:30:35.563Z,101471.69
2023-02-27T16:34:45.442Z,101472.01
2023-02-27T16:38:50.856Z,101474.90
2023-02-27T16:42:53.946Z,101478.73
2023-02-27T16:46:58.933Z,101486.36
2023-02-27T16:51:02.237Z,101486.04
2023-02-27T16:55:05.453Z,101490.98
2023-02-27T16:59:28.346Z,101497.98
2023-02-27T17:03:31.444Z,101503.27
2023-02-27T17:07:34.333Z,101505.04
2023-02-27T17:11:37.195Z,101513.58
2023-02-27T17:15:39.955Z,101511.52
2023-02-27T17:19:42.792Z,101511.33
2023-02-27T17:23:46.798Z,101511.33
2023-02-27T17:27:50.205Z,101517.66
2023-02-27T17:31:53.148Z,101523.21
2023-02-27T17:36:07.281Z,101524.88
2023-02-27T17:40:12.280Z,101525.94
2023-02-27T17:44:15.241Z,101529.55
2023-02-27T17:48:18.391Z,101528.15
2023-02-27T17:52:21.224Z,101526.66
2023-02-27T17:56:24.331Z,101527.06
2023-02-27T18:00:27.307Z,101526.79
2023-02-27T18:04:30.251Z,101528.42
2023-02-27T18:08:34.066Z,101527.17
2023-02-27T18:12:37.179Z,101528.09
2023-02-27T18:16:40.093Z,101531.88
2023-02-27T18:20:43.177Z,101529.64
2023-02-27T18:24:45.979Z,101530.60
2023-02-27T18:28:49.199Z,101531.66
2023-02-27T18:32:56.393Z,101533.50
2023-02-27T18:36:59.285Z,101533.79
2023-02-27T18:41:03.458Z,101535.96
2023-02-27T18:45:06.745Z,101540.54
2023-02-27T18:49:09.744Z,101542.67
2023-02-27T18:53:12.571Z,101549.21
2023-02-27T18:57:15.760Z,101550.96
2023-02-27T19:01:29.870Z,101552.96
2023-02-27T19:05:33.125Z,101558.66
2023-02-27T19:09:35.900Z,101561.86
2023-02-27T19:13:39.023Z,101566.21
2023-02-27T19:17:41.809Z,101571.30
2023-02-27T19:21:45.091Z,101573.91
2023-02-27T19:25:49.096Z,101576.54
2023-02-27T19:29:51.975Z,101576.67
2023-02-27T19:33:54.954Z,101580.48
2023-02-27T19:37:58.255Z,101582.52
2023-02-27T19:42:01.210Z,101583.77
2023-02-27T19:46:12.521Z,101584.26
2023-02-27T19:50:16.322Z,101584.40
2023-02-27T19:54:19.810Z,101588.25
2023-02-27T19:58:22.856Z,101591.24
2023-02-27T20:02:26.450Z,101595.35
2023-02-27T20:06:33.061Z,101601.73
2023-02-27T20:10:35.916Z,101603.00
2023-02-27T20:14:38.766Z,101601.42
2023-02-27T20:18:43.454Z,101608.20
2023-02-27T20:22:46.462Z,101609.11
2023-02-27T20:26:53.455Z,101610.38
2023-02-27T20:30:56.319Z,101608.97
2023-02-27T20:34:59.247Z,101609.92
2023-02-27T20:39:02.803Z,101611.01
2023-02-27T20:43:05.847Z,101613.98
2023-02-27T20:47:09.208Z,101614.47
2023-02-27T20:51:24.337Z,101618.01
2023-02-27T20:55:27.133Z,101618.95
2023-02-27T20:59:29.963Z,101619.94
2023-02-27T21:03:38.447Z,101620.39
2023-02-27T21:07:42.033Z,101621.34
2023-02-27T21:11:45.105Z,101626.05
2023-02-27T21:15:48.042Z,101624.05
2023-02-27T21:19:51.105Z,101624.14
2023-02-27T21:23:54.509Z,101622.89
2023-02-27T21:28:02.256Z,101624.95
2023-02-27T21:32:05.671Z,101627.14
2023-02-27T21:36:09.595Z,101628.80
2023-02-27T21:40:12.852Z,101631.19
2023-02-27T21:44:18.921Z,101632.56
2023-02-27T21:48:21.733Z,101640.13
2023-02-27T21:52:24.621Z,101636.75
2023-02-27T21:56:29.746Z,101639.32
2023-02-27T22:00:33.665Z,101635.05
2023-02-27T22:04:36.659Z,101636.30
2023-02-27T22:08:40.263Z,101634.94
2023-02-27T22:12:43.083Z,101634.54
2023-02-27T22:16:45.970Z,101635.81
2023-02-27T22:20:48.861Z,101634.11
2023-02-27T22:24:51.781Z,101636.22
2023-02-27T22:28:58.629Z,101638.36
2023-02-27T22:33:01.505Z,101641.52
2023-02-27T22:37:04.449Z,101638.52
2023-02-27T22:41:12.866Z,101639.41
2023-02-27T22:45:15.753Z,101638.84
2023-02-27T22:49:21.594Z,101640.77
2023-02-27T22:53:24.675Z,101637.92
2023-02-27T22:57:27.560Z,101642.22
2023-02-27T23:01:32.736Z,101643.41
2023-02-27T23:05:35.733Z,101644.94
2023-02-27T23:09:38.550Z,101643.52
2023-02-27T23:13:41.686Z,101646.34
2023-02-27T23:17:56.616Z,101649.21
2023-02-27T23:22:01.019Z,101651.02
2023-02-27T23:26:05.714Z,101654.09
2023-02-27T23:30:10.570Z,101657.17
2023-02-27T23:34:13.385Z,101656.77
2023-02-27T23:38:16.272Z,101657.63
2023-02-27T23:42:19.265Z,101656.66
2023-02-27T23:46:22.054Z,101654.20
2023-02-27T23:50:28.130Z,101664.05
2023-02-27T23:54:30.984Z,101670.27
2023-02-27T23:58:33.868Z,101666.38
